Time;durP1;ratioP1;P1;durP2;ratioP2;P2;SDS_P1;SDS_P2;PMS_P1;PMS_P2;Temp;Humidity;BMP_temperature;BMP_pressure;BME280_temperature;BME280_humidity;BME280_pressure;Samples;Min_cycle;Max_cycle;Signal;HPM_P1;HPM_P2
2021/11/29 00:02:06;;;;;;;24.70;9.60;;;;;;;0.18;93.29;98309.90;103325;1312;28106;-77
2021/11/29 00:04:37;;;;;;;25.50;10.60;;;;;;;0.18;93.32;98316.60;103314;1313;22634;-77
2021/11/29 00:07:08;;;;;;;27.60;11.80;;;;;;;0.18;93.27;98324.39;103550;1316;22769;-77
2021/11/29 00:09:39;;;;;;;33.10;11.60;;;;;;;0.19;93.26;98339.71;103474;1312;22801;-77
2021/11/29 00:12:11;;;;;;;28.30;12.60;;;;;;;0.20;93.31;98342.83;103426;1312;22551;-76
2021/11/29 00:14:42;;;;;;;30.40;11.90;;;;;;;0.21;93.36;98345.06;103442;1318;22640;-77
2021/11/29 00:17:11;;;;;;;;;;;;;;;0.21;93.31;98344.02;103459;1312;24421;-76
2021/11/29 00:19:42;;;;;;;25.40;10.20;;;;;;;0.22;93.20;98342.28;103496;1313;22845;-77
2021/11/29 00:22:13;;;;;;;27.20;10.50;;;;;;;0.21;93.28;98347.01;103324;1312;23726;-76
2021/11/29 00:24:44;;;;;;;23.10;9.90;;;;;;;0.22;93.30;98347.92;103397;1312;25620;-77
2021/11/29 00:27:16;;;;;;;26.20;10.10;;;;;;;0.21;93.29;98350.20;103524;1312;22812;-77
2021/11/29 00:29:46;;;;;;;27.10;10.50;;;;;;;0.21;93.32;98348.16;103459;1313;22649;-77
2021/11/29 00:32:18;;;;;;;28.30;10.10;;;;;;;0.22;93.23;98348.77;103438;1312;24772;-77
2021/11/29 00:34:49;;;;;;;26.50;11.10;;;;;;;0.22;93.20;98349.16;103545;1312;22680;-76
2021/11/29 00:37:20;;;;;;;33.00;12.30;;;;;;;0.22;93.32;98351.43;103473;1313;22792;-77
2021/11/29 00:39:51;;;;;;;30.10;12.40;;;;;;;0.22;93.28;98355.34;103434;1312;22603;-77
2021/11/29 00:42:22;;;;;;;30.40;12.50;;;;;;;0.23;93.19;98359.99;103526;1313;25546;-77
2021/11/29 00:44:53;;;;;;;26.60;11.10;;;;;;;0.23;93.20;98367.67;103515;1312;25578;-77
2021/11/29 00:47:24;;;;;;;26.70;11.10;;;;;;;0.23;93.25;98374.06;103400;1317;22573;-77
2021/11/29 00:49:55;;;;;;;36.10;12.90;;;;;;;0.24;93.24;98378.02;103369;1312;23258;-77
2021/11/29 00:52:27;;;;;;;29.60;11.50;;;;;;;0.23;93.24;98376.06;103333;1315;22559;-77
2021/11/29 00:54:58;;;;;;;32.70;12.80;;;;;;;0.24;93.16;98378.48;103505;1313;22644;-77
2021/11/29 00:57:29;;;;;;;26.60;10.60;;;;;;;0.25;93.22;98373.81;103313;1312;22813;-77
2021/11/29 00:59:59;;;;;;;32.90;12.60;;;;;;;0.25;93.16;98369.02;103408;1313;22643;-77
2021/11/29 01:02:30;;;;;;;30.70;12.70;;;;;;;0.25;93.14;98363.98;103370;1312;22577;-76
2021/11/29 01:05:01;;;;;;;31.50;13.70;;;;;;;0.25;93.13;98353.41;103434;1312;24241;-77
2021/11/29 01:07:32;;;;;;;34.50;12.70;;;;;;;0.26;93.15;98354.73;103725;1312;22925;-77
2021/11/29 01:10:05;;;;;;;31.50;12.80;;;;;;;0.25;93.11;98350.13;103517;1313;24196;-77
2021/11/29 01:12:36;;;;;;;28.00;11.70;;;;;;;0.26;93.15;98343.65;103611;1313;22668;-77
2021/11/29 01:15:10;;;;;;;28.20;11.80;;;;;;;0.26;93.11;98343.11;103472;1312;22577;-77
2021/11/29 01:17:41;;;;;;;31.00;12.30;;;;;;;0.26;93.08;98345.55;103490;1318;24329;-77
2021/11/29 01:20:14;;;;;;;29.30;12.70;;;;;;;0.24;93.13;98347.73;103528;1313;22635;-76
2021/11/29 01:22:46;;;;;;;28.50;11.30;;;;;;;0.24;93.20;98351.65;103507;1313;24236;-77
2021/11/29 01:25:17;;;;;;;29.00;11.30;;;;;;;0.24;93.13;98353.63;103447;1312;22659;-76
2021/11/29 01:27:48;;;;;;;28.50;12.60;;;;;;;0.24;93.13;98349.64;103309;1312;22623;-77
2021/11/29 01:30:19;;;;;;;30.40;11.90;;;;;;;0.24;93.19;98347.73;103480;1312;22638;-76
2021/11/29 01:32:50;;;;;;;27.70;12.00;;;;;;;0.23;93.14;98339.23;103461;1319;24438;-77
2021/11/29 01:35:21;;;;;;;26.10;10.20;;;;;;;0.23;93.19;98335.94;103463;1312;22603;-76
2021/11/29 01:37:52;;;;;;;26.00;10.70;;;;;;;0.23;93.23;98339.42;103448;1312;24256;-77
2021/11/29 01:40:23;;;;;;;34.10;13.60;;;;;;;0.22;93.27;98340.61;103489;1312;24251;-77
2021/11/29 01:43:00;;;;;;;33.20;12.20;;;;;;;0.22;93.23;98338.72;103338;1312;22580;-76
2021/11/29 01:45:33;;;;;;;26.00;11.10;;;;;;;0.22;93.18;98337.46;103348;1317;22580;-76
2021/11/29 01:48:04;;;;;;;32.20;13.60;;;;;;;0.23;93.25;98330.79;103467;1313;26535;-77
2021/11/29 01:50:37;;;;;;;31.60;11.10;;;;;;;0.22;93.26;98328.52;103461;1313;25374;-76
2021/11/29 01:53:10;;;;;;;33.00;12.70;;;;;;;0.22;93.31;98326.66;103592;1313;24301;-77
2021/11/29 01:55:42;;;;;;;35.50;14.90;;;;;;;0.21;93.33;98329.81;103556;1316;25393;-76
2021/11/29 01:58:14;;;;;;;27.70;11.40;;;;;;;0.21;93.30;98329.51;103348;1312;25576;-77
2021/11/29 02:00:47;;;;;;;30.00;11.00;;;;;;;0.21;93.26;98329.14;103494;1313;22574;-76
2021/11/29 02:03:19;;;;;;;30.30;10.40;;;;;;;0.20;93.27;98328.69;103535;1312;23991;-77
2021/11/29 02:05:50;;;;;;;29.90;11.80;;;;;;;0.20;93.29;98331.61;103458;1316;24301;-77
2021/11/29 02:08:23;;;;;;;27.70;11.30;;;;;;;0.19;93.30;98329.28;103537;1317;22590;-77
2021/11/29 02:10:55;;;;;;;25.70;9.00;;;;;;;0.18;93.34;98334.41;103475;1313;25645;-76
2021/11/29 02:13:26;;;;;;;27.30;9.30;;;;;;;0.18;93.30;98331.70;103851;1298;91919;-60
2021/11/29 02:15:57;;;;;;;35.30;13.00;;;;;;;0.18;93.36;98335.93;103219;1309;22574;-59
2021/11/29 02:18:32;;;;;;;27.20;10.40;;;;;;;0.17;93.32;98338.38;103383;1309;22653;-60
2021/11/29 02:21:06;;;;;;;25.90;10.40;;;;;;;0.18;93.35;98342.52;103386;1316;22577;-60
2021/11/29 02:23:41;;;;;;;24.60;8.70;;;;;;;0.17;93.34;98344.95;103358;1315;22692;-61
2021/11/29 02:26:13;;;;;;;28.30;11.20;;;;;;;0.18;93.39;98350.75;103402;1309;25330;-61
2021/11/29 02:28:47;;;;;;;29.80;11.70;;;;;;;0.18;93.38;98350.66;103299;1314;24199;-59
2021/11/29 02:31:20;;;;;;;27.60;10.40;;;;;;;0.18;93.34;98357.55;103392;1314;24351;-61
2021/11/29 02:33:51;;;;;;;27.60;10.40;;;;;;;0.18;93.31;98363.20;103372;1316;22644;-60
2021/11/29 02:36:22;;;;;;;28.70;11.10;;;;;;;0.18;93.30;98364.13;103400;1313;25513;-60
2021/11/29 02:38:54;;;;;;;25.90;9.70;;;;;;;0.18;93.28;98372.52;103415;1316;23296;-59
2021/11/29 02:41:25;;;;;;;28.30;11.00;;;;;;;0.19;93.31;98370.64;103369;1309;24312;-61
2021/11/29 02:43:56;;;;;;;28.50;10.30;;;;;;;0.18;93.35;98372.67;103347;1309;25344;-58
2021/11/29 02:46:29;;;;;;;33.30;12.70;;;;;;;0.18;93.35;98374.17;103311;1313;22658;-60
2021/11/29 02:49:01;;;;;;;39.20;13.10;;;;;;;0.19;93.35;98381.67;103275;1309;23321;-60
2021/11/29 02:51:35;;;;;;;32.70;13.40;;;;;;;0.19;93.39;98388.16;103380;1314;24310;-59
2021/11/29 02:54:11;;;;;;;29.50;11.80;;;;;;;0.19;93.35;98391.70;103394;1313;22599;-60
2021/11/29 02:56:45;;;;;;;32.10;13.60;;;;;;;0.19;93.39;98391.16;103414;1316;24284;-58
2021/11/29 02:59:22;;;;;;;31.10;11.40;;;;;;;0.19;93.41;98389.90;103490;1310;22783;-61
2021/11/29 03:01:55;;;;;;;35.20;13.70;;;;;;;0.19;93.25;98386.11;103286;1309;22651;-60
2021/11/29 03:04:28;;;;;;;35.40;12.80;;;;;;;0.19;93.38;98381.27;103305;1313;24192;-59
2021/11/29 03:07:00;;;;;;;36.80;13.10;;;;;;;0.20;93.37;98382.89;103424;1309;24238;-61
2021/11/29 03:09:32;;;;;;;31.80;12.20;;;;;;;0.19;93.29;98378.92;103489;1310;24285;-61
2021/11/29 03:12:05;;;;;;;35.50;12.90;;;;;;;0.19;93.35;98379.63;103353;1314;24320;-60
2021/11/29 03:14:36;;;;;;;34.70;12.90;;;;;;;0.18;93.39;98373.77;103232;1316;24232;-60
2021/11/29 03:17:08;;;;;;;32.80;13.70;;;;;;;0.18;93.28;98378.55;103216;1310;22723;-60
2021/11/29 03:19:41;;;;;;;32.80;12.00;;;;;;;0.18;93.30;98377.77;103383;1310;23280;-60
2021/11/29 03:22:13;;;;;;;30.50;12.10;;;;;;;0.18;93.30;98375.27;103271;1315;22665;-58
2021/11/29 03:24:46;;;;;;;33.20;12.40;;;;;;;0.17;93.31;98373.50;103249;1309;22665;-60
2021/11/29 03:27:19;;;;;;;31.20;10.80;;;;;;;0.18;93.29;98373.40;103232;1316;22593;-58
2021/11/29 03:29:51;;;;;;;37.60;15.00;;;;;;;0.17;93.33;98373.58;103280;1316;22638;-60
2021/11/29 03:32:23;;;;;;;29.10;11.70;;;;;;;0.17;93.27;98381.59;103338;1310;24243;-59
2021/11/29 03:34:54;;;;;;;35.40;15.00;;;;;;;0.17;93.29;98380.41;103488;1309;25686;-59
2021/11/29 03:37:25;;;;;;;33.50;13.60;;;;;;;0.17;93.25;98382.54;103338;1312;22669;-60
2021/11/29 03:39:57;;;;;;;36.80;15.90;;;;;;;0.16;93.26;98385.08;103410;1310;25363;-60
2021/11/29 03:42:28;;;;;;;32.40;13.40;;;;;;;0.16;93.23;98385.46;103270;1314;24438;-60
2021/11/29 03:45:01;;;;;;;31.10;11.20;;;;;;;0.15;93.28;98383.84;103447;1313;25227;-60
2021/11/29 03:47:32;;;;;;;34.80;13.90;;;;;;;0.14;93.30;98384.52;103562;1314;24577;-60
2021/11/29 03:50:04;;;;;;;34.30;13.30;;;;;;;0.13;93.27;98381.50;103311;1310;24158;-59
2021/11/29 03:52:36;;;;;;;37.10;15.00;;;;;;;0.13;93.26;98382.93;103436;1313;23219;-59
2021/11/29 03:55:09;;;;;;;35.60;13.50;;;;;;;0.13;93.25;98379.73;103683;1310;25576;-59
2021/11/29 03:57:40;;;;;;;36.00;14.90;;;;;;;0.12;93.27;98379.92;103608;1313;23166;-59
2021/11/29 04:00:13;;;;;;;32.80;13.90;;;;;;;0.12;93.26;98379.36;103352;1310;25438;-59
2021/11/29 04:02:44;;;;;;;34.20;12.90;;;;;;;0.11;93.28;98374.20;103329;1316;22629;-60
2021/11/29 04:05:15;;;;;;;32.90;13.20;;;;;;;0.10;93.27;98369.25;103325;1309;25348;-59
2021/11/29 04:07:47;;;;;;;35.60;14.10;;;;;;;0.10;93.34;98370.42;103330;1310;22726;-61
2021/11/29 04:10:18;;;;;;;29.10;11.30;;;;;;;0.09;93.34;98362.96;103316;1310;22761;-60
2021/11/29 04:12:50;;;;;;;33.30;13.30;;;;;;;0.08;93.23;98367.39;103312;1310;22680;-58
2021/11/29 04:15:21;;;;;;;35.10;13.30;;;;;;;0.08;93.25;98363.31;103513;1309;22655;-60
2021/11/29 04:17:53;;;;;;;35.10;13.60;;;;;;;0.07;93.34;98365.06;103331;1314;22574;-59
2021/11/29 04:20:24;;;;;;;34.00;11.30;;;;;;;0.07;93.34;98367.43;103307;1309;22640;-60
2021/11/29 04:22:55;;;;;;;44.40;17.50;;;;;;;0.05;93.39;98367.29;103225;1309;24317;-59
2021/11/29 04:25:33;;;;;;;41.20;14.10;;;;;;;0.04;93.31;98365.75;103276;1314;22563;-59
2021/11/29 04:28:04;;;;;;;39.20;14.40;;;;;;;0.03;93.41;98367.18;103337;1310;22858;-60
2021/11/29 04:30:37;;;;;;;34.30;12.60;;;;;;;0.02;93.46;98361.45;103328;1310;23183;-61
2021/11/29 04:33:08;;;;;;;35.60;14.00;;;;;;;0.00;93.37;98365.16;103290;1310;22579;-62
2021/11/29 04:35:40;;;;;;;34.70;13.40;;;;;;;-0.00;93.35;98367.39;103360;1317;23393;-58
2021/11/29 04:38:12;;;;;;;32.50;11.00;;;;;;;-0.01;93.31;98367.73;103542;1309;23112;-60
2021/11/29 04:40:44;;;;;;;33.70;11.70;;;;;;;-0.03;93.34;98371.25;103317;1310;22652;-58
2021/11/29 04:43:15;;;;;;;30.50;13.40;;;;;;;-0.04;93.36;98369.89;103267;1310;24349;-60
2021/11/29 04:45:48;;;;;;;35.00;13.40;;;;;;;-0.05;93.39;98374.41;103367;1309;25402;-59
2021/11/29 04:48:19;;;;;;;36.30;12.60;;;;;;;-0.06;93.36;98374.27;104831;1309;22644;-59
2021/11/29 04:50:51;;;;;;;33.40;13.10;;;;;;;-0.07;93.41;98376.12;106914;1316;22395;-60
2021/11/29 04:53:21;;;;;;;32.00;10.10;;;;;;;-0.08;93.41;98372.85;106857;1316;22529;-58
2021/11/29 04:55:52;;;;;;;37.20;13.10;;;;;;;-0.08;93.45;98375.43;106853;1309;23307;-61
2021/11/29 04:58:23;;;;;;;37.60;13.00;;;;;;;-0.07;93.38;98375.66;106878;1309;22440;-60
2021/11/29 05:00:54;;;;;;;35.60;11.90;;;;;;;-0.06;93.36;98379.77;106844;1309;22448;-60
2021/11/29 05:03:27;;;;;;;34.30;10.70;;;;;;;-0.06;93.33;98379.52;106875;1310;22476;-61
2021/11/29 05:05:57;;;;;;;39.50;12.20;;;;;;;-0.06;93.37;98384.92;106505;1317;22387;-59
2021/11/29 05:08:28;;;;;;;37.50;11.20;;;;;;;-0.06;93.28;98380.61;106527;1307;201069;-60
2021/11/29 05:11:00;;;;;;;36.50;12.90;;;;;;;-0.05;93.29;98382.30;106771;1314;22895;-61
2021/11/29 05:13:32;;;;;;;28.70;10.90;;;;;;;-0.04;93.26;98383.61;106840;1312;23286;-60
2021/11/29 05:16:03;;;;;;;36.60;14.00;;;;;;;-0.03;93.29;98385.20;106854;1314;22439;-60
2021/11/29 05:18:34;;;;;;;38.30;14.30;;;;;;;-0.03;93.24;98386.12;106846;1309;22418;-60
2021/11/29 05:21:05;;;;;;;39.20;11.40;;;;;;;-0.02;93.22;98386.17;106845;1317;22287;-59
2021/11/29 05:23:36;;;;;;;34.60;11.50;;;;;;;-0.02;93.22;98388.77;106883;1316;23138;-60
2021/11/29 05:26:07;;;;;;;40.80;13.70;;;;;;;-0.02;93.11;98390.50;106831;1309;23149;-59
2021/11/29 05:28:38;;;;;;;38.40;13.50;;;;;;;-0.04;93.20;98397.77;106828;1310;22908;-61
2021/11/29 05:31:11;;;;;;;33.30;11.80;;;;;;;-0.05;93.15;98398.13;106812;1312;22367;-59
2021/11/29 05:33:42;;;;;;;33.80;12.20;;;;;;;-0.05;93.25;98397.03;106866;1317;22313;-59
2021/11/29 05:36:14;;;;;;;38.20;13.60;;;;;;;-0.06;93.24;98400.59;106834;1316;22392;-60
2021/11/29 05:38:46;;;;;;;37.00;11.20;;;;;;;-0.05;93.25;98403.61;106894;1316;23139;-58
2021/11/29 05:41:17;;;;;;;35.00;12.50;;;;;;;-0.05;93.18;98405.05;106914;1310;22422;-55
2021/11/29 05:43:48;;;;;;;32.30;11.10;;;;;;;-0.05;93.20;98407.63;106102;1309;22877;-56
2021/11/29 05:46:22;;;;;;;39.40;13.10;;;;;;;-0.05;93.20;98412.42;103261;1310;24238;-54
2021/11/29 05:48:56;;;;;;;35.00;11.50;;;;;;;-0.05;93.19;98415.85;105356;1309;24273;-56
2021/11/29 05:51:27;;;;;;;36.90;11.40;;;;;;;-0.05;93.16;98423.15;103282;1309;22670;-62
2021/11/29 05:53:58;;;;;;;37.20;12.60;;;;;;;-0.06;93.17;98429.20;103095;1314;22698;-56
2021/11/29 05:56:29;;;;;;;32.40;12.30;;;;;;;-0.06;93.09;98433.05;104411;1310;24294;-57
2021/11/29 05:59:01;;;;;;;34.80;12.00;;;;;;;-0.07;93.17;98436.00;103209;1309;22615;-57
2021/11/29 06:01:34;;;;;;;29.70;11.20;;;;;;;-0.08;93.20;98436.81;103407;1310;25511;-57
2021/11/29 06:04:06;;;;;;;30.80;12.00;;;;;;;-0.09;93.24;98442.48;103096;1310;22574;-56
2021/11/29 06:06:37;;;;;;;37.40;13.30;;;;;;;-0.10;93.19;98444.17;103353;1309;25329;-57
2021/11/29 06:09:09;;;;;;;35.30;12.80;;;;;;;-0.10;93.31;98454.14;103277;1314;22634;-59
2021/11/29 06:11:41;;;;;;;32.30;12.60;;;;;;;-0.11;93.20;98455.12;103602;1315;26897;-56
2021/11/29 06:14:12;;;;;;;37.80;12.50;;;;;;;-0.12;93.32;98461.48;106882;1310;22289;-57
2021/11/29 06:16:44;;;;;;;31.90;11.10;;;;;;;-0.12;93.28;98465.27;103541;1314;25348;-58
2021/11/29 06:19:15;;;;;;;28.30;11.50;;;;;;;-0.12;93.35;98468.15;103213;1309;23340;-55
2021/11/29 06:21:46;;;;;;;34.00;12.10;;;;;;;-0.13;93.24;98471.58;103199;1310;24297;-58
2021/11/29 06:24:18;;;;;;;32.50;13.00;;;;;;;-0.12;93.32;98474.36;103153;1310;22638;-58
2021/11/29 06:26:49;;;;;;;26.80;8.30;;;;;;;-0.12;93.34;98477.16;103248;1310;24400;-55
2021/11/29 06:29:21;;;;;;;33.60;11.30;;;;;;;-0.13;93.33;98482.39;103401;1309;22574;-56
2021/11/29 06:31:52;;;;;;;29.20;10.50;;;;;;;-0.14;93.26;98484.77;103283;1310;24457;-57
2021/11/29 06:34:25;;;;;;;27.80;11.10;;;;;;;-0.14;93.27;98490.73;103223;1314;22640;-56
2021/11/29 06:36:56;;;;;;;32.00;12.50;;;;;;;-0.15;93.24;98490.30;103356;1310;24200;-56
2021/11/29 06:39:29;;;;;;;30.70;12.20;;;;;;;-0.15;93.30;98499.63;103280;1314;24190;-55
2021/11/29 06:42:01;;;;;;;41.60;13.30;;;;;;;-0.16;93.23;98503.11;103286;1314;22579;-55
2021/11/29 06:44:33;;;;;;;33.00;12.40;;;;;;;-0.17;93.25;98503.39;103202;1315;23133;-54
2021/11/29 06:47:04;;;;;;;36.40;12.90;;;;;;;-0.17;93.30;98502.13;103422;1310;22682;-54
2021/11/29 06:49:37;;;;;;;33.80;11.00;;;;;;;-0.18;93.28;98502.80;103325;1309;24300;-55
2021/11/29 06:52:09;;;;;;;31.30;13.00;;;;;;;-0.19;93.24;98506.77;103475;1314;22657;-53
2021/11/29 06:54:40;;;;;;;29.90;10.10;;;;;;;-0.20;93.36;98511.08;103392;1309;22577;-55
2021/11/29 06:57:14;;;;;;;33.20;12.40;;;;;;;-0.23;93.26;98512.38;103322;1310;22807;-56
2021/11/29 06:59:47;;;;;;;31.40;12.90;;;;;;;-0.25;93.31;98515.89;103385;1316;27036;-55
2021/11/29 07:02:19;;;;;;;38.10;14.00;;;;;;;-0.24;93.28;98520.49;103480;1309;22574;-55
2021/11/29 07:04:50;;;;;;;37.80;14.70;;;;;;;-0.24;93.30;98522.79;103374;1313;22615;-57
2021/11/29 07:07:22;;;;;;;36.40;13.40;;;;;;;-0.25;93.37;98527.81;103134;1309;22677;-57
2021/11/29 07:09:54;;;;;;;39.20;13.70;;;;;;;-0.25;93.33;98531.39;103267;1309;25538;-57
2021/11/29 07:12:25;;;;;;;36.40;12.40;;;;;;;-0.25;93.38;98535.03;103160;1314;22775;-54
2021/11/29 07:14:57;;;;;;;41.70;15.90;;;;;;;-0.26;93.23;98533.25;103097;1318;25396;-55
2021/11/29 07:17:28;;;;;;;34.20;12.80;;;;;;;-0.25;93.25;98534.33;103027;1316;22577;-56
2021/11/29 07:20:00;;;;;;;38.50;15.00;;;;;;;-0.25;93.22;98535.13;103048;1312;22672;-56
2021/11/29 07:22:31;;;;;;;37.90;13.80;;;;;;;-0.26;93.29;98544.69;103590;1312;22719;-59
2021/11/29 07:25:04;;;;;;;37.20;13.40;;;;;;;-0.26;93.26;98547.36;105415;1312;22573;-55
2021/11/29 07:27:35;;;;;;;34.00;13.70;;;;;;;-0.27;93.18;98545.18;102954;1312;22667;-58
2021/11/29 07:30:10;;;;;;;36.20;13.50;;;;;;;-0.27;93.21;98546.68;106695;1318;22794;-58
2021/11/29 07:32:43;;;;;;;32.70;11.40;;;;;;;-0.27;93.11;98545.34;105809;1319;22616;-57
2021/11/29 07:35:15;;;;;;;30.60;11.90;;;;;;;-0.26;93.23;98548.21;103227;1312;22798;-57
2021/11/29 07:37:47;;;;;;;29.70;11.70;;;;;;;-0.26;93.03;98553.15;103028;1312;25586;-55
2021/11/29 07:40:19;;;;;;;32.50;13.40;;;;;;;-0.26;92.98;98559.64;102965;1316;24317;-55
2021/11/29 07:42:50;;;;;;;28.60;11.50;;;;;;;-0.27;92.88;98562.52;103049;1312;24218;-55
2021/11/29 07:45:22;;;;;;;31.30;12.20;;;;;;;-0.28;92.92;98567.56;103050;1319;27559;-57
2021/11/29 07:47:54;;;;;;;34.00;13.30;;;;;;;-0.27;92.91;98569.65;103512;1317;24844;-58
2021/11/29 07:50:26;;;;;;;34.90;11.50;;;;;;;-0.26;93.00;98571.25;103312;1313;24230;-58
2021/11/29 07:52:58;;;;;;;37.10;12.40;;;;;;;-0.24;92.96;98570.86;103160;1313;25348;-56
2021/11/29 07:55:30;;;;;;;33.60;12.60;;;;;;;-0.24;92.92;98574.52;103073;1312;23018;-56
2021/11/29 07:58:03;;;;;;;31.30;9.80;;;;;;;-0.24;92.60;98576.75;102902;1314;26665;-58
2021/11/29 08:00:36;;;;;;;32.60;10.90;;;;;;;-0.26;92.52;98581.66;103161;1312;25451;-56
2021/11/29 08:03:09;;;;;;;28.40;11.70;;;;;;;-0.27;92.51;98581.69;103085;1318;24277;-57
2021/11/29 08:05:41;;;;;;;27.90;10.00;;;;;;;-0.26;92.42;98585.59;103083;1318;22623;-55
2021/11/29 08:08:13;;;;;;;32.20;11.70;;;;;;;-0.26;92.32;98588.64;103055;1317;22595;-56
2021/11/29 08:10:44;;;;;;;31.30;10.00;;;;;;;-0.25;92.39;98592.91;102994;1316;25467;-56
2021/11/29 08:13:15;;;;;;;29.90;10.10;;;;;;;-0.24;92.20;98596.48;103074;1312;24285;-55
2021/11/29 08:15:47;;;;;;;29.10;10.50;;;;;;;-0.24;92.11;98594.76;104140;1300;22590;-59
2021/11/29 08:18:18;;;;;;;28.20;10.90;;;;;;;-0.23;92.00;98598.96;103314;1316;24257;-57
2021/11/29 08:20:49;;;;;;;32.20;9.60;;;;;;;-0.23;91.92;98595.13;103388;1319;24238;-57
2021/11/29 08:23:21;;;;;;;28.60;10.30;;;;;;;-0.22;91.98;98603.48;103165;1312;25400;-56
2021/11/29 08:25:52;;;;;;;28.60;11.80;;;;;;;-0.24;91.83;98611.93;103585;1312;22796;-57
2021/11/29 08:28:24;;;;;;;39.40;16.30;;;;;;;-0.26;91.77;98618.41;103313;1313;22528;-60
2021/11/29 08:30:56;;;;;;;33.50;11.40;;;;;;;-0.27;91.75;98617.83;103329;1312;25678;-57
2021/11/29 08:33:27;;;;;;;39.60;13.50;;;;;;;-0.28;91.60;98619.13;103270;1312;22633;-58
2021/11/29 08:35:58;;;;;;;32.80;14.30;;;;;;;-0.30;91.66;98620.77;103225;1319;26963;-61
2021/11/29 08:38:32;;;;;;;36.50;12.90;;;;;;;-0.32;91.60;98624.03;103245;1312;24234;-60
2021/11/29 08:41:04;;;;;;;38.80;12.70;;;;;;;-0.32;91.72;98628.05;103283;1313;24199;-58
2021/11/29 08:43:38;;;;;;;33.10;11.40;;;;;;;-0.33;91.70;98632.16;102919;1312;24336;-56
2021/11/29 08:46:09;;;;;;;36.30;13.20;;;;;;;-0.34;91.78;98632.95;102862;1312;22577;-56
2021/11/29 08:48:41;;;;;;;32.10;12.80;;;;;;;-0.34;91.77;98633.80;102877;1312;22639;-56
2021/11/29 08:51:12;;;;;;;34.00;12.10;;;;;;;-0.32;91.86;98630.30;102860;1317;25805;-58
2021/11/29 08:53:43;;;;;;;29.10;10.20;;;;;;;-0.30;91.70;98633.86;102767;1319;22648;-57
2021/11/29 08:56:16;;;;;;;26.70;9.80;;;;;;;-0.30;91.70;98635.02;103123;1312;22803;-58
2021/11/29 08:58:47;;;;;;;26.80;10.80;;;;;;;-0.29;91.75;98636.21;102961;1313;25499;-58
2021/11/29 09:01:19;;;;;;;28.20;8.40;;;;;;;-0.27;91.71;98637.48;103201;1313;25419;-58
2021/11/29 09:03:51;;;;;;;31.70;11.80;;;;;;;-0.26;91.65;98640.97;103291;1312;25252;-58
2021/11/29 09:06:23;;;;;;;31.30;11.10;;;;;;;-0.24;91.70;98644.60;103004;1312;22714;-58
2021/11/29 09:08:55;;;;;;;27.30;10.90;;;;;;;-0.22;91.69;98645.55;102882;1319;24398;-58
2021/11/29 09:11:26;;;;;;;28.60;9.20;;;;;;;-0.20;91.51;98649.23;103213;1317;22773;-57
2021/11/29 09:13:59;;;;;;;27.90;9.80;;;;;;;-0.19;91.49;98649.60;102738;1317;22577;-59
2021/11/29 09:16:31;;;;;;;26.10;8.50;;;;;;;-0.18;91.41;98652.52;102726;1313;22687;-58
2021/11/29 09:19:02;;;;;;;24.90;8.80;;;;;;;-0.16;91.45;98656.13;102891;1317;22608;-58
2021/11/29 09:21:35;;;;;;;23.70;8.20;;;;;;;-0.14;91.30;98659.90;102874;1312;22581;-59
2021/11/29 09:24:07;;;;;;;31.80;10.10;;;;;;;-0.14;91.02;98665.25;103006;1317;24310;-61
2021/11/29 09:26:38;;;;;;;35.70;12.30;;;;;;;-0.16;91.12;98663.73;103430;1319;25601;-58
2021/11/29 09:29:09;;;;;;;33.10;10.60;;;;;;;-0.14;91.36;98661.23;103324;1317;22613;-60
2021/11/29 09:31:41;;;;;;;30.70;11.30;;;;;;;-0.12;91.37;98659.82;103401;1317;25411;-60
2021/11/29 09:34:12;;;;;;;36.80;12.40;;;;;;;-0.06;91.70;98659.06;104038;1313;25623;-58
2021/11/29 09:36:44;;;;;;;26.70;10.30;;;;;;;-0.02;91.45;98654.69;104557;1312;22580;-58
2021/11/29 09:39:15;;;;;;;32.80;11.40;;;;;;;0.02;91.60;98651.98;103250;1313;22668;-60
2021/11/29 09:41:46;;;;;;;39.50;13.30;;;;;;;0.06;91.44;98646.05;103378;1319;23915;-58
2021/11/29 09:44:18;;;;;;;38.10;14.50;;;;;;;0.11;91.57;98648.06;103311;1312;25611;-58
2021/11/29 09:46:49;;;;;;;37.70;14.40;;;;;;;0.15;91.58;98645.85;103269;1312;23071;-58
2021/11/29 09:49:21;;;;;;;38.60;14.20;;;;;;;0.19;91.46;98648.31;103269;1312;22696;-59
2021/11/29 09:51:52;;;;;;;38.40;14.10;;;;;;;0.23;91.48;98649.09;103315;1312;24266;-59
2021/11/29 09:54:24;;;;;;;43.20;15.70;;;;;;;0.26;91.25;98647.42;103319;1312;26908;-58
2021/11/29 09:56:56;;;;;;;33.90;13.20;;;;;;;0.27;91.31;98647.77;103323;1319;22783;-60
2021/11/29 09:59:28;;;;;;;38.20;14.10;;;;;;;0.29;91.31;98646.52;103273;1312;27820;-60
2021/11/29 10:01:59;;;;;;;38.40;14.60;;;;;;;0.31;91.36;98644.33;103346;1312;25566;-61
2021/11/29 10:04:31;;;;;;;37.00;15.20;;;;;;;0.33;91.40;98647.22;103256;1313;22676;-58
2021/11/29 10:07:04;;;;;;;47.90;17.20;;;;;;;0.34;91.20;98645.24;103304;1312;22624;-59
2021/11/29 10:09:37;;;;;;;40.10;14.30;;;;;;;0.33;91.16;98650.45;103375;1317;22730;-58
2021/11/29 10:12:27;;;;;;;41.70;15.70;;;;;;;0.30;90.95;98649.77;103289;1317;24361;-59
2021/11/29 10:15:17;;;;;;;42.80;14.80;;;;;;;0.29;91.05;98650.05;103331;1320;22730;-60
2021/11/29 10:17:53;;;;;;;41.00;13.70;;;;;;;0.28;90.98;98651.27;103426;1318;23990;-58
2021/11/29 10:20:29;;;;;;;50.30;15.10;;;;;;;0.26;90.97;98656.42;103312;1312;22599;-60
2021/11/29 10:23:07;;;;;;;38.50;14.20;;;;;;;0.24;91.00;98656.05;103289;1318;22617;-59
2021/11/29 10:25:45;;;;;;;34.40;12.90;;;;;;;0.23;91.00;98656.77;103470;1312;26999;-59
2021/11/29 10:28:33;;;;;;;38.70;13.80;;;;;;;0.22;90.93;98657.05;103412;1312;24202;-60
2021/11/29 10:31:22;;;;;;;33.40;10.90;;;;;;;0.22;90.81;98657.53;103335;1317;22684;-60
2021/11/29 10:34:01;;;;;;;40.20;13.70;;;;;;;0.23;91.02;98650.27;103547;1312;22662;-59
2021/11/29 10:36:35;;;;;;;33.90;11.90;;;;;;;0.25;90.92;98653.73;103396;1313;26487;-58
2021/11/29 10:39:10;;;;;;;38.50;14.10;;;;;;;0.25;90.91;98650.90;103399;1312;22693;-60
2021/11/29 10:41:44;;;;;;;35.60;12.30;;;;;;;0.27;90.99;98652.80;103323;1316;23092;-58
2021/11/29 10:44:20;;;;;;;34.30;10.70;;;;;;;0.31;91.03;98651.40;103334;1312;22588;-61
2021/11/29 10:46:54;;;;;;;41.20;14.70;;;;;;;0.35;90.66;98649.68;103534;1312;25656;-63
2021/11/29 10:49:29;;;;;;;31.80;9.70;;;;;;;0.40;90.95;98654.84;103439;1313;25770;-59
2021/11/29 10:52:02;;;;;;;31.50;10.00;;;;;;;0.44;90.64;98653.39;103349;1312;23121;-58
2021/11/29 10:54:36;;;;;;;35.20;12.20;;;;;;;0.49;90.42;98653.85;103552;1316;22648;-58
2021/11/29 10:57:11;;;;;;;31.60;11.20;;;;;;;0.52;90.33;98655.63;103399;1312;28343;-60
2021/11/29 10:59:44;;;;;;;25.80;9.30;;;;;;;0.54;90.35;98658.02;103380;1319;23019;-60
2021/11/29 11:02:17;;;;;;;33.70;10.60;;;;;;;0.56;90.03;98661.33;103334;1317;22822;-60
2021/11/29 11:04:50;;;;;;;31.20;10.50;;;;;;;0.58;89.99;98661.34;103347;1313;22669;-58
2021/11/29 11:07:26;;;;;;;32.10;10.10;;;;;;;0.60;89.96;98660.35;103354;1312;22722;-61
2021/11/29 11:10:00;;;;;;;29.40;10.30;;;;;;;0.59;89.90;98659.09;103374;1312;22876;-60
2021/11/29 11:12:36;;;;;;;30.10;8.60;;;;;;;0.60;89.73;98666.11;103339;1318;22632;-59
2021/11/29 11:15:11;;;;;;;27.20;8.00;;;;;;;0.59;88.61;98668.70;103307;1317;22806;-61
2021/11/29 11:17:42;;;;;;;28.50;8.00;;;;;;;0.57;89.32;98667.76;103323;1319;24215;-60
2021/11/29 11:20:16;;;;;;;25.20;7.50;;;;;;;0.56;89.38;98673.11;103362;1312;22576;-60
2021/11/29 11:22:51;;;;;;;18.70;5.50;;;;;;;0.55;89.04;98672.92;103487;1317;22621;-59
2021/11/29 11:25:26;;;;;;;24.70;6.70;;;;;;;0.53;88.50;98674.55;103412;1312;22576;-60
2021/11/29 11:28:00;;;;;;;23.80;6.50;;;;;;;0.51;88.74;98674.23;103442;1312;22580;-60
2021/11/29 11:30:34;;;;;;;25.70;6.80;;;;;;;0.49;88.88;98671.48;103292;1316;22671;-60
2021/11/29 11:33:09;;;;;;;24.20;6.20;;;;;;;0.48;89.09;98670.81;103326;1317;22775;-61
2021/11/29 11:35:45;;;;;;;21.60;5.10;;;;;;;0.48;89.03;98673.25;103289;1317;25069;-59
2021/11/29 11:38:18;;;;;;;21.40;5.80;;;;;;;0.48;88.76;98664.64;103387;1319;24335;-58